createdAt,value
2018-10-16T00:04:18.697Z,64.00
2018-10-16T00:14:21.966Z,64.10
2018-10-16T00:24:25.614Z,64.20
2018-10-16T00:34:28.874Z,64.30
2018-10-16T00:44:32.124Z,64.20
2018-10-16T00:54:35.372Z,64.50
2018-10-16T01:04:38.601Z,64.70
2018-10-16T01:14:41.828Z,64.70
2018-10-16T01:24:45.104Z,65.00
2018-10-16T01:34:48.320Z,65.20
2018-10-16T01:44:51.584Z,64.90
2018-10-16T01:54:55.657Z,65.30
2018-10-16T02:04:58.964Z,65.00
2018-10-16T02:15:02.241Z,65.40
2018-10-16T02:25:05.504Z,66.60
2018-10-16T02:35:09.821Z,65.80
2018-10-16T02:45:13.084Z,66.20
2018-10-16T02:55:16.312Z,66.00
2018-10-16T03:05:19.537Z,66.50
2018-10-16T03:15:22.766Z,66.60
2018-10-16T03:25:25.976Z,66.50
2018-10-16T03:35:29.876Z,66.50
2018-10-16T03:45:33.478Z,66.80
2018-10-16T03:55:36.705Z,66.60
2018-10-16T04:05:40.143Z,66.90
2018-10-16T04:15:43.353Z,66.70
2018-10-16T04:25:46.579Z,66.70
2018-10-16T04:35:50.244Z,66.70
2018-10-16T04:45:53.667Z,66.50
2018-10-16T04:55:56.903Z,66.50
2018-10-16T05:06:00.176Z,66.10
2018-10-16T05:16:04.192Z,67.20
2018-10-16T05:26:07.481Z,67.10
2018-10-16T05:36:11.370Z,67.10
2018-10-16T05:46:14.620Z,67.20
2018-10-16T05:56:18.183Z,67.00
2018-10-16T06:06:21.506Z,67.10
2018-10-16T06:16:24.749Z,66.60
2018-10-16T06:26:28.002Z,67.20
2018-10-16T06:36:31.238Z,66.70
2018-10-16T06:46:34.848Z,66.70
2018-10-16T06:56:38.029Z,66.40
2018-10-16T07:06:41.853Z,67.30
2018-10-16T07:16:45.098Z,66.80
2018-10-16T07:26:48.378Z,67.60
2018-10-16T07:36:51.663Z,67.50
2018-10-16T07:46:55.021Z,67.30
2018-10-16T07:56:58.341Z,67.70
2018-10-16T08:07:01.561Z,67.60
2018-10-16T08:17:05.401Z,66.60
2018-10-16T08:27:08.621Z,66.40
2018-10-16T08:37:13.294Z,65.90
2018-10-16T08:49:33.433Z,65.50
2018-10-16T08:59:37.021Z,64.60
2018-10-16T09:09:40.644Z,63.90
2018-10-16T09:19:44.244Z,63.20
2018-10-16T09:29:47.568Z,62.40
2018-10-16T09:39:51.084Z,62.00
2018-10-16T09:49:54.812Z,60.90
2018-10-16T09:59:58.215Z,60.20
2018-10-16T10:10:01.596Z,60.00
2018-10-16T10:20:05.176Z,59.50
2018-10-16T10:30:11.384Z,58.60
2018-10-16T10:40:16.104Z,57.70
2018-10-16T10:50:19.738Z,56.70
2018-10-16T11:00:22.936Z,55.70
2018-10-16T11:10:26.738Z,54.90
2018-10-16T11:20:30.151Z,54.00
2018-10-16T11:30:33.553Z,53.20
2018-10-16T11:40:36.847Z,51.90
2018-10-16T11:50:40.192Z,50.70
2018-10-16T12:00:43.538Z,49.80
2018-10-16T12:10:46.944Z,48.80
2018-10-16T12:20:59.761Z,48.40
2018-10-16T12:31:03.088Z,47.40
2018-10-16T12:41:06.404Z,47.40
2018-10-16T12:51:09.747Z,47.80
2018-10-16T13:01:12.907Z,47.80
2018-10-16T13:11:16.209Z,47.60
2018-10-16T13:21:19.395Z,47.50
2018-10-16T13:31:22.623Z,47.10
2018-10-16T13:41:26.007Z,47.10
2018-10-16T13:51:29.245Z,47.20
2018-10-16T14:01:32.481Z,47.10
2018-10-16T14:11:35.824Z,47.20
2018-10-16T14:21:39.239Z,47.10
2018-10-16T14:31:42.547Z,47.10
2018-10-16T14:41:45.772Z,47.70
2018-10-16T14:51:49.068Z,48.70
2018-10-16T15:01:52.324Z,49.60
2018-10-16T15:11:55.765Z,50.50
2018-10-16T15:21:59.045Z,50.90
2018-10-16T15:32:02.309Z,51.10
2018-10-16T15:42:05.919Z,51.60
2018-10-16T15:52:10.933Z,51.80
2018-10-16T16:02:14.324Z,52.30
2018-10-16T16:12:17.625Z,52.80
2018-10-16T16:22:20.937Z,52.70
2018-10-16T16:32:24.297Z,53.00
2018-10-16T16:42:27.687Z,53.10
2018-10-16T16:52:31.032Z,53.30
2018-10-16T17:02:34.349Z,54.00
2018-10-16T17:12:38.275Z,57.20
2018-10-16T17:22:41.632Z,60.30
2018-10-16T17:32:45.156Z,63.10
2018-10-16T17:42:48.607Z,65.50
2018-10-16T17:52:51.945Z,67.40
2018-10-16T18:02:55.378Z,69.30
2018-10-16T18:12:58.652Z,71.10
2018-10-16T18:23:02.014Z,72.80
2018-10-16T18:33:05.737Z,74.20
2018-10-16T18:43:08.984Z,74.70
2018-10-16T18:53:12.392Z,75.10
2018-10-16T19:03:15.696Z,75.60
2018-10-16T19:13:19.027Z,76.40
2018-10-16T19:23:22.369Z,77.20
2018-10-16T19:33:26.063Z,77.80
2018-10-16T19:43:29.353Z,78.40
2018-10-16T19:53:32.704Z,78.90
2018-10-16T20:03:36.061Z,78.80
2018-10-16T20:13:39.388Z,79.20
2018-10-16T20:23:42.728Z,79.50
2018-10-16T20:33:46.707Z,79.70
2018-10-16T20:43:50.051Z,79.70
2018-10-16T20:53:53.409Z,80.00
2018-10-16T21:03:56.748Z,80.10
2018-10-16T21:13:59.996Z,80.40
2018-10-16T21:24:03.420Z,80.50
2018-10-16T21:34:06.864Z,80.70
2018-10-16T21:44:10.098Z,80.80
2018-10-16T21:54:13.312Z,80.80
2018-10-16T22:04:16.520Z,80.70
2018-10-16T22:14:19.735Z,81.70
2018-10-16T22:24:22.980Z,80.90
2018-10-16T22:34:26.217Z,80.90
2018-10-16T22:44:29.496Z,80.30
2018-10-16T22:54:32.708Z,80.60
2018-10-16T23:04:35.940Z,79.80
2018-10-16T23:14:39.155Z,80.10
2018-10-16T23:24:42.439Z,80.50
2018-10-16T23:34:45.702Z,81.40
2018-10-16T23:44:48.927Z,81.60
2018-10-16T23:54:52.509Z,81.40
